sensor_id;sensor_type;location;lat;lon;timestamp;P1;durP1;ratioP1;P2;durP2;ratioP2
11703;SDS011;5908;51.354;7.458;2023-12-20T00:00:29;16.23;;;11.70;;
11703;SDS011;5908;51.354;7.458;2023-12-20T00:02:56;19.00;;;12.47;;
11703;SDS011;5908;51.354;7.458;2023-12-20T00:05:23;22.77;;;15.30;;
11703;SDS011;5908;51.354;7.458;2023-12-20T00:07:50;15.97;;;11.73;;
11703;SDS011;5908;51.354;7.458;2023-12-20T00:10:16;14.27;;;10.17;;
11703;SDS011;5908;51.354;7.458;2023-12-20T00:12:44;14.53;;;10.07;;
11703;SDS011;5908;51.354;7.458;2023-12-20T00:15:11;17.40;;;11.30;;
11703;SDS011;5908;51.354;7.458;2023-12-20T00:17:38;25.00;;;13.43;;
11703;SDS011;5908;51.354;7.458;2023-12-20T00:20:05;18.97;;;12.00;;
11703;SDS011;5908;51.354;7.458;2023-12-20T00:22:33;14.20;;;8.10;;
11703;SDS011;5908;51.354;7.458;2023-12-20T00:25:00;14.27;;;7.60;;
11703;SDS011;5908;51.354;7.458;2023-12-20T00:27:26;16.80;;;9.30;;
11703;SDS011;5908;51.354;7.458;2023-12-20T00:29:54;26.87;;;11.53;;
11703;SDS011;5908;51.354;7.458;2023-12-20T00:32:21;25.03;;;12.33;;
11703;SDS011;5908;51.354;7.458;2023-12-20T00:34:48;24.67;;;13.77;;
11703;SDS011;5908;51.354;7.458;2023-12-20T00:37:15;26.37;;;12.13;;
11703;SDS011;5908;51.354;7.458;2023-12-20T00:39:42;23.00;;;11.83;;
11703;SDS011;5908;51.354;7.458;2023-12-20T00:42:09;19.70;;;12.37;;
11703;SDS011;5908;51.354;7.458;2023-12-20T00:44:36;20.87;;;11.93;;
11703;SDS011;5908;51.354;7.458;2023-12-20T00:47:04;24.87;;;14.13;;
11703;SDS011;5908;51.354;7.458;2023-12-20T00:49:31;27.23;;;14.70;;
11703;SDS011;5908;51.354;7.458;2023-12-20T00:51:57;30.43;;;16.70;;
11703;SDS011;5908;51.354;7.458;2023-12-20T00:54:24;24.43;;;15.20;;
11703;SDS011;5908;51.354;7.458;2023-12-20T00:56:51;23.70;;;14.03;;
11703;SDS011;5908;51.354;7.458;2023-12-20T00:59:18;22.10;;;14.13;;
11703;SDS011;5908;51.354;7.458;2023-12-20T01:01:45;25.97;;;14.20;;
11703;SDS011;5908;51.354;7.458;2023-12-20T01:04:13;28.17;;;14.70;;
11703;SDS011;5908;51.354;7.458;2023-12-20T01:06:40;30.80;;;15.53;;
11703;SDS011;5908;51.354;7.458;2023-12-20T01:09:06;28.27;;;16.73;;
11703;SDS011;5908;51.354;7.458;2023-12-20T01:11:33;27.20;;;15.40;;
11703;SDS011;5908;51.354;7.458;2023-12-20T01:14:00;26.87;;;16.10;;
11703;SDS011;5908;51.354;7.458;2023-12-20T01:16:27;27.00;;;15.93;;
11703;SDS011;5908;51.354;7.458;2023-12-20T09:01:44;22.23;;;8.95;;
11703;SDS011;5908;51.354;7.458;2023-12-20T09:04:13;20.80;;;7.97;;
11703;SDS011;5908;51.354;7.458;2023-12-20T09:06:39;21.40;;;10.33;;
11703;SDS011;5908;51.354;7.458;2023-12-20T09:09:06;15.33;;;7.70;;
11703;SDS011;5908;51.354;7.458;2023-12-20T09:11:35;18.93;;;7.00;;
11703;SDS011;5908;51.354;7.458;2023-12-20T09:14:03;19.23;;;6.53;;
11703;SDS011;5908;51.354;7.458;2023-12-20T09:16:30;17.30;;;8.17;;
11703;SDS011;5908;51.354;7.458;2023-12-20T09:18:57;28.70;;;14.77;;
11703;SDS011;5908;51.354;7.458;2023-12-20T09:21:24;18.50;;;8.33;;
11703;SDS011;5908;51.354;7.458;2023-12-20T09:23:50;20.23;;;9.00;;
11703;SDS011;5908;51.354;7.458;2023-12-20T09:26:17;14.53;;;6.20;;
11703;SDS011;5908;51.354;7.458;2023-12-20T09:28:44;19.57;;;6.30;;
11703;SDS011;5908;51.354;7.458;2023-12-20T09:31:12;18.13;;;8.53;;
11703;SDS011;5908;51.354;7.458;2023-12-20T09:33:39;13.73;;;6.70;;
11703;SDS011;5908;51.354;7.458;2023-12-20T09:36:06;14.17;;;5.57;;
11703;SDS011;5908;51.354;7.458;2023-12-20T09:38:33;18.63;;;6.03;;
11703;SDS011;5908;51.354;7.458;2023-12-20T09:41:00;15.90;;;5.23;;
11703;SDS011;5908;51.354;7.458;2023-12-20T09:43:29;14.73;;;4.87;;
11703;SDS011;5908;51.354;7.458;2023-12-20T09:45:57;14.50;;;5.10;;
11703;SDS011;5908;51.354;7.458;2023-12-20T09:48:29;15.77;;;5.80;;
11703;SDS011;5908;51.354;7.458;2023-12-20T09:50:56;13.43;;;5.10;;
11703;SDS011;5908;51.354;7.458;2023-12-20T09:53:23;15.67;;;5.47;;
11703;SDS011;5908;51.354;7.458;2023-12-20T09:55:54;14.27;;;5.33;;
11703;SDS011;5908;51.354;7.458;2023-12-20T09:58:24;17.37;;;5.63;;
11703;SDS011;5908;51.354;7.458;2023-12-20T10:00:50;18.07;;;8.73;;
11703;SDS011;5908;51.354;7.458;2023-12-20T10:03:19;14.93;;;7.30;;
11703;SDS011;5908;51.354;7.458;2023-12-20T10:05:51;21.40;;;9.47;;
11703;SDS011;5908;51.354;7.458;2023-12-20T10:08:20;16.50;;;7.07;;
11703;SDS011;5908;51.354;7.458;2023-12-20T10:10:47;26.27;;;12.40;;
11703;SDS011;5908;51.354;7.458;2023-12-20T10:13:14;16.03;;;5.87;;
11703;SDS011;5908;51.354;7.458;2023-12-20T10:15:41;18.73;;;9.03;;
11703;SDS011;5908;51.354;7.458;2023-12-20T10:18:08;18.70;;;7.03;;
11703;SDS011;5908;51.354;7.458;2023-12-20T10:20:35;14.87;;;6.37;;
11703;SDS011;5908;51.354;7.458;2023-12-20T10:23:04;20.90;;;8.20;;
11703;SDS011;5908;51.354;7.458;2023-12-20T10:25:30;15.03;;;5.80;;
11703;SDS011;5908;51.354;7.458;2023-12-20T10:28:08;16.97;;;7.37;;
11703;SDS011;5908;51.354;7.458;2023-12-20T10:30:36;15.73;;;6.53;;
11703;SDS011;5908;51.354;7.458;2023-12-20T10:33:04;15.80;;;5.93;;
11703;SDS011;5908;51.354;7.458;2023-12-20T10:35:32;16.10;;;6.90;;
11703;SDS011;5908;51.354;7.458;2023-12-20T10:37:59;16.03;;;7.57;;
11703;SDS011;5908;51.354;7.458;2023-12-20T10:40:31;13.17;;;5.77;;
11703;SDS011;5908;51.354;7.458;2023-12-20T10:43:01;12.70;;;5.40;;
11703;SDS011;5908;51.354;7.458;2023-12-20T10:45:29;13.37;;;5.63;;
11703;SDS011;5908;51.354;7.458;2023-12-20T10:47:56;15.37;;;5.83;;
11703;SDS011;5908;51.354;7.458;2023-12-20T10:50:25;18.17;;;5.73;;
11703;SDS011;5908;51.354;7.458;2023-12-20T10:52:53;15.83;;;7.33;;
11703;SDS011;5908;51.354;7.458;2023-12-20T10:55:22;14.73;;;7.17;;
11703;SDS011;5908;51.354;7.458;2023-12-20T10:57:50;14.77;;;7.50;;
11703;SDS011;5908;51.354;7.458;2023-12-20T11:00:17;14.73;;;6.27;;
11703;SDS011;5908;51.354;7.458;2023-12-20T11:02:45;19.77;;;8.80;;
11703;SDS011;5908;51.354;7.458;2023-12-20T11:05:15;22.27;;;7.53;;
11703;SDS011;5908;51.354;7.458;2023-12-20T11:07:52;16.17;;;6.67;;
11703;SDS011;5908;51.354;7.458;2023-12-20T11:10:30;23.00;;;9.73;;
11703;SDS011;5908;51.354;7.458;2023-12-20T11:13:03;15.77;;;6.53;;
11703;SDS011;5908;51.354;7.458;2023-12-20T11:15:35;14.90;;;6.23;;
11703;SDS011;5908;51.354;7.458;2023-12-20T11:18:01;18.47;;;7.10;;
11703;SDS011;5908;51.354;7.458;2023-12-20T11:20:34;16.37;;;5.80;;
11703;SDS011;5908;51.354;7.458;2023-12-20T11:23:02;13.53;;;5.57;;
11703;SDS011;5908;51.354;7.458;2023-12-20T11:25:31;13.13;;;5.33;;
